sensor_id;sensor_type;location;lat;lon;timestamp;P1;durP1;ratioP1;P2;durP2;ratioP2
1328;SDS011;658;48.820;9.354;2023-03-05T00:02:57;13.50;;;12.10;;
1328;SDS011;658;48.820;9.354;2023-03-05T00:06:58;12.50;;;11.20;;
1328;SDS011;658;48.820;9.354;2023-03-05T00:11:03;11.83;;;10.63;;
1328;SDS011;658;48.820;9.354;2023-03-05T00:15:06;12.97;;;10.77;;
1328;SDS011;658;48.820;9.354;2023-03-05T00:19:07;11.40;;;10.07;;
1328;SDS011;658;48.820;9.354;2023-03-05T00:23:09;13.63;;;10.80;;
1328;SDS011;658;48.820;9.354;2023-03-05T00:27:09;10.80;;;9.70;;
1328;SDS011;658;48.820;9.354;2023-03-05T00:31:10;10.40;;;9.20;;
1328;SDS011;658;48.820;9.354;2023-03-05T00:35:11;11.83;;;10.63;;
1328;SDS011;658;48.820;9.354;2023-03-05T00:39:12;11.57;;;10.43;;
1328;SDS011;658;48.820;9.354;2023-03-05T00:43:13;11.70;;;9.50;;
1328;SDS011;658;48.820;9.354;2023-03-05T00:47:13;10.17;;;9.17;;
1328;SDS011;658;48.820;9.354;2023-03-05T00:51:17;10.30;;;8.90;;
1328;SDS011;658;48.820;9.354;2023-03-05T00:55:18;9.67;;;8.70;;
1328;SDS011;658;48.820;9.354;2023-03-05T00:59:18;9.87;;;8.87;;
1328;SDS011;658;48.820;9.354;2023-03-05T01:03:19;9.10;;;8.20;;
1328;SDS011;658;48.820;9.354;2023-03-05T01:07:20;8.93;;;8.13;;
1328;SDS011;658;48.820;9.354;2023-03-05T01:11:21;9.97;;;9.00;;
1328;SDS011;658;48.820;9.354;2023-03-05T01:15:22;10.13;;;9.13;;
1328;SDS011;658;48.820;9.354;2023-03-05T01:19:23;8.77;;;7.90;;
1328;SDS011;658;48.820;9.354;2023-03-05T01:23:24;9.10;;;8.20;;
1328;SDS011;658;48.820;9.354;2023-03-05T01:27:24;8.93;;;8.10;;
1328;SDS011;658;48.820;9.354;2023-03-05T01:31:25;8.90;;;8.10;;
1328;SDS011;658;48.820;9.354;2023-03-05T01:35:26;8.90;;;8.03;;
1328;SDS011;658;48.820;9.354;2023-03-05T01:39:26;8.63;;;7.73;;
1328;SDS011;658;48.820;9.354;2023-03-05T01:43:28;8.43;;;7.50;;
1328;SDS011;658;48.820;9.354;2023-03-05T01:47:30;8.83;;;7.50;;
1328;SDS011;658;48.820;9.354;2023-03-05T01:51:31;7.80;;;6.53;;
1328;SDS011;658;48.820;9.354;2023-03-05T01:55:37;7.60;;;6.67;;
1328;SDS011;658;48.820;9.354;2023-03-05T01:59:38;7.80;;;7.00;;
1328;SDS011;658;48.820;9.354;2023-03-05T02:03:41;8.50;;;7.70;;
1328;SDS011;658;48.820;9.354;2023-03-05T02:07:42;7.93;;;7.23;;
1328;SDS011;658;48.820;9.354;2023-03-05T02:11:44;7.60;;;6.77;;
1328;SDS011;658;48.820;9.354;2023-03-05T02:15:44;7.37;;;6.60;;
1328;SDS011;658;48.820;9.354;2023-03-05T02:19:48;7.83;;;7.03;;
1328;SDS011;658;48.820;9.354;2023-03-05T02:23:50;7.33;;;6.63;;
1328;SDS011;658;48.820;9.354;2023-03-05T02:32:04;8.10;;;7.17;;
1328;SDS011;658;48.820;9.354;2023-03-05T02:36:05;6.90;;;6.20;;
1328;SDS011;658;48.820;9.354;2023-03-05T02:40:06;7.00;;;6.40;;
1328;SDS011;658;48.820;9.354;2023-03-05T02:44:08;6.87;;;6.30;;
1328;SDS011;658;48.820;9.354;2023-03-05T02:48:08;6.93;;;6.33;;
1328;SDS011;658;48.820;9.354;2023-03-05T02:52:09;6.90;;;6.30;;
1328;SDS011;658;48.820;9.354;2023-03-05T02:56:10;7.33;;;6.70;;
1328;SDS011;658;48.820;9.354;2023-03-05T03:00:10;6.80;;;6.10;;
1328;SDS011;658;48.820;9.354;2023-03-05T03:04:11;6.90;;;6.20;;
1328;SDS011;658;48.820;9.354;2023-03-05T03:08:12;7.03;;;6.40;;
1328;SDS011;658;48.820;9.354;2023-03-05T03:12:14;6.60;;;6.00;;
1328;SDS011;658;48.820;9.354;2023-03-05T03:16:14;5.80;;;5.30;;
1328;SDS011;658;48.820;9.354;2023-03-05T03:20:16;7.03;;;6.20;;
1328;SDS011;658;48.820;9.354;2023-03-05T03:24:18;6.47;;;5.87;;
1328;SDS011;658;48.820;9.354;2023-03-05T03:28:18;6.93;;;6.33;;
1328;SDS011;658;48.820;9.354;2023-03-05T03:32:19;6.20;;;5.70;;
1328;SDS011;658;48.820;9.354;2023-03-05T03:36:20;6.00;;;5.40;;
1328;SDS011;658;48.820;9.354;2023-03-05T03:40:20;7.33;;;5.80;;
1328;SDS011;658;48.820;9.354;2023-03-05T03:44:21;5.87;;;5.37;;
1328;SDS011;658;48.820;9.354;2023-03-05T03:48:22;6.20;;;5.70;;
1328;SDS011;658;48.820;9.354;2023-03-05T03:52:22;5.83;;;5.33;;
1328;SDS011;658;48.820;9.354;2023-03-05T03:56:23;6.30;;;5.70;;
1328;SDS011;658;48.820;9.354;2023-03-05T04:00:24;5.50;;;5.00;;
1328;SDS011;658;48.820;9.354;2023-03-05T04:04:24;6.07;;;5.47;;
1328;SDS011;658;48.820;9.354;2023-03-05T04:08:25;5.60;;;5.10;;
1328;SDS011;658;48.820;9.354;2023-03-05T04:12:26;5.77;;;5.17;;
1328;SDS011;658;48.820;9.354;2023-03-05T04:16:26;5.67;;;5.17;;
1328;SDS011;658;48.820;9.354;2023-03-05T04:20:27;6.20;;;5.60;;
1328;SDS011;658;48.820;9.354;2023-03-05T04:24:27;6.17;;;5.67;;
1328;SDS011;658;48.820;9.354;2023-03-05T04:28:28;5.80;;;5.30;;
1328;SDS011;658;48.820;9.354;2023-03-05T04:32:29;5.93;;;5.37;;
1328;SDS011;658;48.820;9.354;2023-03-05T04:36:29;5.47;;;4.97;;
1328;SDS011;658;48.820;9.354;2023-03-05T04:40:30;5.60;;;5.10;;
1328;SDS011;658;48.820;9.354;2023-03-05T04:44:31;5.93;;;5.43;;
1328;SDS011;658;48.820;9.354;2023-03-05T04:48:31;4.90;;;4.50;;
1328;SDS011;658;48.820;9.354;2023-03-05T04:52:32;5.00;;;4.60;;
1328;SDS011;658;48.820;9.354;2023-03-05T04:56:32;5.13;;;4.73;;
1328;SDS011;658;48.820;9.354;2023-03-05T05:00:33;5.57;;;5.07;;
1328;SDS011;658;48.820;9.354;2023-03-05T05:04:34;5.47;;;5.00;;
1328;SDS011;658;48.820;9.354;2023-03-05T05:08:35;5.20;;;4.70;;
1328;SDS011;658;48.820;9.354;2023-03-05T05:12:36;5.50;;;5.07;;
1328;SDS011;658;48.820;9.354;2023-03-05T05:16:37;5.07;;;4.67;;
1328;SDS011;658;48.820;9.354;2023-03-05T05:20:37;5.60;;;5.10;;
1328;SDS011;658;48.820;9.354;2023-03-05T05:24:38;5.40;;;4.90;;
1328;SDS011;658;48.820;9.354;2023-03-05T05:28:39;5.03;;;4.63;;
1328;SDS011;658;48.820;9.354;2023-03-05T05:32:42;4.93;;;4.53;;
1328;SDS011;658;48.820;9.354;2023-03-05T05:36:42;5.80;;;5.17;;
1328;SDS011;658;48.820;9.354;2023-03-05T05:40:43;5.73;;;5.23;;
1328;SDS011;658;48.820;9.354;2023-03-05T05:44:44;5.23;;;4.73;;
1328;SDS011;658;48.820;9.354;2023-03-05T05:48:45;5.60;;;5.10;;
1328;SDS011;658;48.820;9.354;2023-03-05T05:52:46;5.00;;;4.60;;
1328;SDS011;658;48.820;9.354;2023-03-05T05:56:47;4.53;;;4.13;;
1328;SDS011;658;48.820;9.354;2023-03-05T06:00:47;4.63;;;4.27;;
1328;SDS011;658;48.820;9.354;2023-03-05T06:04:48;4.93;;;4.53;;
1328;SDS011;658;48.820;9.354;2023-03-05T06:08:49;5.20;;;4.80;;
1328;SDS011;658;48.820;9.354;2023-03-05T06:12:50;6.10;;;4.40;;
1328;SDS011;658;48.820;9.354;2023-03-05T06:16:50;5.50;;;5.10;;
1328;SDS011;658;48.820;9.354;2023-03-05T06:20:58;5.47;;;5.00;;
1328;SDS011;658;48.820;9.354;2023-03-05T06:25:00;5.00;;;4.50;;
1328;SDS011;658;48.820;9.354;2023-03-05T06:29:00;5.60;;;5.07;;
1328;SDS011;658;48.820;9.354;2023-03-05T06:33:01;5.10;;;4.67;;
1328;SDS011;658;48.820;9.354;2023-03-05T06:37:02;4.77;;;4.37;;
1328;SDS011;658;48.820;9.354;2023-03-05T06:41:04;4.53;;;4.20;;
1328;SDS011;658;48.820;9.354;2023-03-05T06:45:13;4.60;;;4.20;;
1328;SDS011;658;48.820;9.354;2023-03-05T06:49:14;5.00;;;4.50;;
1328;SDS011;658;48.820;9.354;2023-03-05T06:53:14;5.03;;;4.57;;
1328;SDS011;658;48.820;9.354;2023-03-05T06:57:15;4.87;;;4.53;;
1328;SDS011;658;48.820;9.354;2023-03-05T07:01:16;5.00;;;4.60;;
1328;SDS011;658;48.820;9.354;2023-03-05T07:05:17;4.93;;;4.53;;
1328;SDS011;658;48.820;9.354;2023-03-05T07:09:17;4.93;;;4.47;;
1328;SDS011;658;48.820;9.354;2023-03-05T07:13:18;4.70;;;4.30;;
1328;SDS011;658;48.820;9.354;2023-03-05T07:17:19;4.23;;;3.93;;
1328;SDS011;658;48.820;9.354;2023-03-05T07:21:20;4.90;;;4.50;;
1328;SDS011;658;48.820;9.354;2023-03-05T07:25:22;5.40;;;4.90;;
1328;SDS011;658;48.820;9.354;2023-03-05T07:29:23;5.13;;;4.73;;
1328;SDS011;658;48.820;9.354;2023-03-05T07:33:25;4.60;;;4.20;;
1328;SDS011;658;48.820;9.354;2023-03-05T07:37:26;4.53;;;4.17;;
1328;SDS011;658;48.820;9.354;2023-03-05T07:41:27;5.03;;;4.63;;
1328;SDS011;658;48.820;9.354;2023-03-05T07:45:27;5.60;;;5.20;;
1328;SDS011;658;48.820;9.354;2023-03-05T07:49:28;4.40;;;4.10;;
1328;SDS011;658;48.820;9.354;2023-03-05T07:53:29;5.00;;;4.50;;
1328;SDS011;658;48.820;9.354;2023-03-05T07:57:29;4.73;;;4.33;;
1328;SDS011;658;48.820;9.354;2023-03-05T08:01:30;4.57;;;4.17;;
1328;SDS011;658;48.820;9.354;2023-03-05T08:05:31;5.07;;;4.67;;
1328;SDS011;658;48.820;9.354;2023-03-05T08:09:32;4.33;;;4.03;;
1328;SDS011;658;48.820;9.354;2023-03-05T08:13:34;3.93;;;3.63;;
1328;SDS011;658;48.820;9.354;2023-03-05T08:17:35;4.10;;;3.80;;
1328;SDS011;658;48.820;9.354;2023-03-05T08:21:35;3.90;;;3.60;;
1328;SDS011;658;48.820;9.354;2023-03-05T08:25:36;4.40;;;4.00;;
1328;SDS011;658;48.820;9.354;2023-03-05T08:29:37;4.57;;;4.17;;
1328;SDS011;658;48.820;9.354;2023-03-05T08:33:38;5.57;;;4.17;;
1328;SDS011;658;48.820;9.354;2023-03-05T08:37:39;4.87;;;4.47;;
1328;SDS011;658;48.820;9.354;2023-03-05T08:41:39;4.27;;;3.97;;
1328;SDS011;658;48.820;9.354;2023-03-05T08:45:40;4.57;;;4.27;;
1328;SDS011;658;48.820;9.354;2023-03-05T08:49:41;6.17;;;3.97;;
1328;SDS011;658;48.820;9.354;2023-03-05T08:53:41;3.80;;;3.50;;
1328;SDS011;658;48.820;9.354;2023-03-05T08:57:43;4.03;;;3.73;;
1328;SDS011;658;48.820;9.354;2023-03-05T09:01:44;4.60;;;4.20;;
1328;SDS011;658;48.820;9.354;2023-03-05T09:05:44;4.00;;;3.70;;
1328;SDS011;658;48.820;9.354;2023-03-05T09:09:45;3.90;;;3.60;;
1328;SDS011;658;48.820;9.354;2023-03-05T09:13:46;3.33;;;3.13;;
1328;SDS011;658;48.820;9.354;2023-03-05T09:17:46;3.83;;;3.53;;
1328;SDS011;658;48.820;9.354;2023-03-05T09:21:47;4.30;;;3.93;;
1328;SDS011;658;48.820;9.354;2023-03-05T09:25:48;3.73;;;3.43;;
1328;SDS011;658;48.820;9.354;2023-03-05T09:29:49;4.50;;;3.90;;
1328;SDS011;658;48.820;9.354;2023-03-05T09:33:51;3.87;;;3.57;;
1328;SDS011;658;48.820;9.354;2023-03-05T09:37:52;4.27;;;3.80;;
1328;SDS011;658;48.820;9.354;2023-03-05T09:54:41;4.40;;;3.00;;
1328;SDS011;658;48.820;9.354;2023-03-05T09:58:50;3.80;;;3.40;;
1328;SDS011;658;48.820;9.354;2023-03-05T10:02:54;3.30;;;3.00;;
1328;SDS011;658;48.820;9.354;2023-03-05T10:07:04;5.47;;;3.73;;
1328;SDS011;658;48.820;9.354;2023-03-05T10:11:18;3.60;;;3.27;;
1328;SDS011;658;48.820;9.354;2023-03-05T10:15:43;3.60;;;3.30;;
1328;SDS011;658;48.820;9.354;2023-03-05T10:28:34;6.43;;;4.40;;
1328;SDS011;658;48.820;9.354;2023-03-05T10:41:36;11.87;;;8.47;;
1328;SDS011;658;48.820;9.354;2023-03-05T10:46:01;19.80;;;9.37;;
1328;SDS011;658;48.820;9.354;2023-03-05T10:50:11;19.03;;;11.73;;
1328;SDS011;658;48.820;9.354;2023-03-05T10:54:27;14.23;;;9.50;;
1328;SDS011;658;48.820;9.354;2023-03-05T10:58:29;15.93;;;9.63;;
1328;SDS011;658;48.820;9.354;2023-03-05T11:02:31;14.47;;;9.80;;
1328;SDS011;658;48.820;9.354;2023-03-05T11:06:36;12.87;;;9.67;;
1328;SDS011;658;48.820;9.354;2023-03-05T11:10:39;12.43;;;9.43;;
1328;SDS011;658;48.820;9.354;2023-03-05T11:14:44;14.40;;;8.90;;
1328;SDS011;658;48.820;9.354;2023-03-05T11:18:45;11.40;;;8.70;;
1328;SDS011;658;48.820;9.354;2023-03-05T11:27:22;12.80;;;8.90;;
1328;SDS011;658;48.820;9.354;2023-03-05T11:31:31;11.37;;;7.80;;
1328;SDS011;658;48.820;9.354;2023-03-05T11:35:34;9.40;;;8.00;;
1328;SDS011;658;48.820;9.354;2023-03-05T11:39:36;14.43;;;8.27;;
1328;SDS011;658;48.820;9.354;2023-03-05T11:43:39;12.00;;;7.60;;
1328;SDS011;658;48.820;9.354;2023-03-05T11:47:49;11.47;;;7.77;;
1328;SDS011;658;48.820;9.354;2023-03-05T11:56:17;8.33;;;7.00;;
1328;SDS011;658;48.820;9.354;2023-03-05T12:00:41;9.13;;;7.00;;
1328;SDS011;658;48.820;9.354;2023-03-05T12:04:43;8.87;;;7.13;;
1328;SDS011;658;48.820;9.354;2023-03-05T12:08:45;8.57;;;7.20;;
1328;SDS011;658;48.820;9.354;2023-03-05T12:13:03;10.20;;;7.33;;
1328;SDS011;658;48.820;9.354;2023-03-05T12:17:08;11.20;;;6.73;;
1328;SDS011;658;48.820;9.354;2023-03-05T12:21:29;9.67;;;6.90;;
1328;SDS011;658;48.820;9.354;2023-03-05T12:25:50;9.70;;;6.80;;
1328;SDS011;658;48.820;9.354;2023-03-05T12:29:59;8.50;;;6.97;;
1328;SDS011;658;48.820;9.354;2023-03-05T12:38:37;8.33;;;6.77;;
1328;SDS011;658;48.820;9.354;2023-03-05T12:42:43;12.77;;;6.77;;
1328;SDS011;658;48.820;9.354;2023-03-05T12:51:11;10.00;;;6.70;;
1328;SDS011;658;48.820;9.354;2023-03-05T12:55:22;11.57;;;7.23;;
1328;SDS011;658;48.820;9.354;2023-03-05T13:03:54;9.73;;;7.07;;
1328;SDS011;658;48.820;9.354;2023-03-05T13:08:10;8.40;;;6.17;;
1328;SDS011;658;48.820;9.354;2023-03-05T13:12:31;9.97;;;6.57;;
1328;SDS011;658;48.820;9.354;2023-03-05T13:16:37;11.23;;;8.00;;
1328;SDS011;658;48.820;9.354;2023-03-05T13:20:39;9.20;;;6.50;;
1328;SDS011;658;48.820;9.354;2023-03-05T13:24:41;10.30;;;7.03;;
1328;SDS011;658;48.820;9.354;2023-03-05T13:28:42;9.47;;;6.03;;
1328;SDS011;658;48.820;9.354;2023-03-05T13:33:03;10.90;;;7.40;;
1328;SDS011;658;48.820;9.354;2023-03-05T13:41:20;8.17;;;6.40;;
1328;SDS011;658;48.820;9.354;2023-03-05T13:45:27;7.77;;;6.13;;
1328;SDS011;658;48.820;9.354;2023-03-05T13:49:29;9.40;;;6.60;;
1328;SDS011;658;48.820;9.354;2023-03-05T13:53:31;9.40;;;6.10;;
1328;SDS011;658;48.820;9.354;2023-03-05T14:01:42;10.70;;;6.90;;
1328;SDS011;658;48.820;9.354;2023-03-05T14:05:45;8.27;;;6.40;;
1328;SDS011;658;48.820;9.354;2023-03-05T14:09:47;8.20;;;5.93;;
1328;SDS011;658;48.820;9.354;2023-03-05T14:13:56;6.83;;;6.00;;
1328;SDS011;658;48.820;9.354;2023-03-05T14:22:27;7.30;;;5.63;;
1328;SDS011;658;48.820;9.354;2023-03-05T14:30:33;8.87;;;5.60;;
1328;SDS011;658;48.820;9.354;2023-03-05T14:34:36;6.53;;;5.30;;
1328;SDS011;658;48.820;9.354;2023-03-05T14:38:39;5.30;;;4.80;;
1328;SDS011;658;48.820;9.354;2023-03-05T14:46:59;10.47;;;9.47;;
1328;SDS011;658;48.820;9.354;2023-03-05T14:50:59;9.50;;;8.40;;
1328;SDS011;658;48.820;9.354;2023-03-05T14:55:00;8.33;;;7.53;;
1328;SDS011;658;48.820;9.354;2023-03-05T14:59:01;8.60;;;7.07;;
1328;SDS011;658;48.820;9.354;2023-03-05T15:03:02;6.83;;;6.10;;
1328;SDS011;658;48.820;9.354;2023-03-05T15:07:03;7.70;;;7.00;;
1328;SDS011;658;48.820;9.354;2023-03-05T15:11:03;6.87;;;5.80;;
1328;SDS011;658;48.820;9.354;2023-03-05T15:15:05;6.93;;;5.47;;
1328;SDS011;658;48.820;9.354;2023-03-05T15:19:09;7.50;;;6.50;;
1328;SDS011;658;48.820;9.354;2023-03-05T15:23:11;5.67;;;5.17;;
1328;SDS011;658;48.820;9.354;2023-03-05T15:27:12;6.47;;;5.77;;
1328;SDS011;658;48.820;9.354;2023-03-05T15:31:14;6.30;;;5.00;;
1328;SDS011;658;48.820;9.354;2023-03-05T15:35:16;5.53;;;5.03;;
1328;SDS011;658;48.820;9.354;2023-03-05T15:39:17;5.47;;;4.87;;
1328;SDS011;658;48.820;9.354;2023-03-05T15:43:18;7.20;;;4.80;;
1328;SDS011;658;48.820;9.354;2023-03-05T15:47:18;6.03;;;4.87;;
1328;SDS011;658;48.820;9.354;2023-03-05T15:51:19;5.27;;;4.20;;
1328;SDS011;658;48.820;9.354;2023-03-05T15:55:20;4.87;;;4.30;;
1328;SDS011;658;48.820;9.354;2023-03-05T15:59:21;5.07;;;4.10;;
1328;SDS011;658;48.820;9.354;2023-03-05T16:03:21;4.50;;;4.10;;
1328;SDS011;658;48.820;9.354;2023-03-05T16:07:22;4.80;;;4.40;;
1328;SDS011;658;48.820;9.354;2023-03-05T16:11:23;4.30;;;3.90;;
1328;SDS011;658;48.820;9.354;2023-03-05T16:15:24;4.53;;;4.13;;
1328;SDS011;658;48.820;9.354;2023-03-05T16:19:25;6.67;;;4.00;;
1328;SDS011;658;48.820;9.354;2023-03-05T16:23:26;4.20;;;3.73;;
1328;SDS011;658;48.820;9.354;2023-03-05T16:27:27;3.67;;;3.37;;
1328;SDS011;658;48.820;9.354;2023-03-05T16:31:28;3.30;;;3.00;;
1328;SDS011;658;48.820;9.354;2023-03-05T16:35:31;3.37;;;3.00;;
1328;SDS011;658;48.820;9.354;2023-03-05T16:39:32;4.63;;;3.40;;
1328;SDS011;658;48.820;9.354;2023-03-05T16:43:32;4.70;;;3.60;;
1328;SDS011;658;48.820;9.354;2023-03-05T16:47:33;4.90;;;4.40;;
1328;SDS011;658;48.820;9.354;2023-03-05T16:51:34;3.93;;;3.50;;
1328;SDS011;658;48.820;9.354;2023-03-05T16:55:35;3.97;;;3.57;;
1328;SDS011;658;48.820;9.354;2023-03-05T16:59:36;4.60;;;3.50;;
1328;SDS011;658;48.820;9.354;2023-03-05T17:03:37;3.60;;;3.30;;
1328;SDS011;658;48.820;9.354;2023-03-05T17:07:40;3.27;;;3.00;;
1328;SDS011;658;48.820;9.354;2023-03-05T17:11:40;3.50;;;3.20;;
1328;SDS011;658;48.820;9.354;2023-03-05T17:15:41;4.97;;;3.63;;
1328;SDS011;658;48.820;9.354;2023-03-05T17:19:42;4.30;;;3.57;;
1328;SDS011;658;48.820;9.354;2023-03-05T17:23:43;4.63;;;3.40;;
1328;SDS011;658;48.820;9.354;2023-03-05T17:27:44;4.00;;;3.57;;
1328;SDS011;658;48.820;9.354;2023-03-05T17:31:44;3.53;;;3.23;;
1328;SDS011;658;48.820;9.354;2023-03-05T17:35:45;6.67;;;3.90;;
1328;SDS011;658;48.820;9.354;2023-03-05T17:39:47;4.23;;;3.83;;
1328;SDS011;658;48.820;9.354;2023-03-05T17:43:48;5.50;;;4.97;;
1328;SDS011;658;48.820;9.354;2023-03-05T17:47:50;5.00;;;4.33;;
1328;SDS011;658;48.820;9.354;2023-03-05T17:51:51;5.70;;;4.67;;
1328;SDS011;658;48.820;9.354;2023-03-05T17:55:52;6.20;;;4.60;;
1328;SDS011;658;48.820;9.354;2023-03-05T17:59:53;7.60;;;4.90;;
1328;SDS011;658;48.820;9.354;2023-03-05T18:03:54;7.40;;;4.90;;
1328;SDS011;658;48.820;9.354;2023-03-05T18:07:55;5.50;;;4.50;;
1328;SDS011;658;48.820;9.354;2023-03-05T18:11:56;9.40;;;5.50;;
1328;SDS011;658;48.820;9.354;2023-03-05T18:15:59;10.10;;;5.77;;
1328;SDS011;658;48.820;9.354;2023-03-05T18:20:00;7.47;;;4.60;;
1328;SDS011;658;48.820;9.354;2023-03-05T18:24:01;6.17;;;4.50;;
1328;SDS011;658;48.820;9.354;2023-03-05T18:28:06;5.50;;;4.77;;
1328;SDS011;658;48.820;9.354;2023-03-05T18:32:08;7.03;;;5.00;;
1328;SDS011;658;48.820;9.354;2023-03-05T18:36:10;7.10;;;4.20;;
1328;SDS011;658;48.820;9.354;2023-03-05T18:40:12;5.70;;;4.40;;
1328;SDS011;658;48.820;9.354;2023-03-05T18:44:14;6.03;;;4.63;;
1328;SDS011;658;48.820;9.354;2023-03-05T18:48:15;5.20;;;4.70;;
1328;SDS011;658;48.820;9.354;2023-03-05T18:52:16;4.20;;;3.80;;
1328;SDS011;658;48.820;9.354;2023-03-05T18:56:16;4.80;;;3.80;;
1328;SDS011;658;48.820;9.354;2023-03-05T19:00:18;5.30;;;4.53;;
1328;SDS011;658;48.820;9.354;2023-03-05T19:04:21;4.77;;;4.30;;
1328;SDS011;658;48.820;9.354;2023-03-05T19:08:22;4.50;;;4.07;;
1328;SDS011;658;48.820;9.354;2023-03-05T19:12:24;5.40;;;4.43;;
1328;SDS011;658;48.820;9.354;2023-03-05T19:16:29;5.53;;;4.10;;
1328;SDS011;658;48.820;9.354;2023-03-05T19:20:37;6.27;;;3.87;;
1328;SDS011;658;48.820;9.354;2023-03-05T19:24:37;4.80;;;3.87;;
1328;SDS011;658;48.820;9.354;2023-03-05T19:28:38;4.13;;;3.50;;
1328;SDS011;658;48.820;9.354;2023-03-05T19:32:39;6.17;;;4.83;;
1328;SDS011;658;48.820;9.354;2023-03-05T19:36:40;5.97;;;3.47;;
1328;SDS011;658;48.820;9.354;2023-03-05T19:40:40;4.50;;;3.80;;
1328;SDS011;658;48.820;9.354;2023-03-05T19:44:41;5.30;;;3.70;;
1328;SDS011;658;48.820;9.354;2023-03-05T19:48:42;3.80;;;3.50;;
1328;SDS011;658;48.820;9.354;2023-03-05T19:52:44;6.30;;;4.20;;
1328;SDS011;658;48.820;9.354;2023-03-05T19:56:45;6.57;;;3.90;;
1328;SDS011;658;48.820;9.354;2023-03-05T20:00:47;5.63;;;4.83;;
1328;SDS011;658;48.820;9.354;2023-03-05T20:04:48;7.37;;;5.40;;
1328;SDS011;658;48.820;9.354;2023-03-05T20:08:49;9.53;;;6.47;;
1328;SDS011;658;48.820;9.354;2023-03-05T20:12:49;8.30;;;6.70;;
1328;SDS011;658;48.820;9.354;2023-03-05T20:16:50;9.60;;;8.13;;
1328;SDS011;658;48.820;9.354;2023-03-05T20:20:52;11.17;;;9.37;;
1328;SDS011;658;48.820;9.354;2023-03-05T20:24:54;15.70;;;10.80;;
1328;SDS011;658;48.820;9.354;2023-03-05T20:28:55;17.03;;;11.70;;
1328;SDS011;658;48.820;9.354;2023-03-05T20:32:56;15.57;;;11.87;;
1328;SDS011;658;48.820;9.354;2023-03-05T20:36:57;19.67;;;14.20;;
1328;SDS011;658;48.820;9.354;2023-03-05T20:45:03;17.83;;;14.67;;
1328;SDS011;658;48.820;9.354;2023-03-05T20:49:04;23.10;;;15.37;;
1328;SDS011;658;48.820;9.354;2023-03-05T20:53:06;21.47;;;14.63;;
1328;SDS011;658;48.820;9.354;2023-03-05T20:57:07;17.53;;;14.93;;
1328;SDS011;658;48.820;9.354;2023-03-05T21:01:08;23.70;;;15.43;;
1328;SDS011;658;48.820;9.354;2023-03-05T21:05:09;23.53;;;16.60;;
1328;SDS011;658;48.820;9.354;2023-03-05T21:09:11;20.97;;;15.23;;
1328;SDS011;658;48.820;9.354;2023-03-05T21:13:12;22.30;;;15.87;;
1328;SDS011;658;48.820;9.354;2023-03-05T21:17:12;23.80;;;16.07;;
1328;SDS011;658;48.820;9.354;2023-03-05T21:21:13;20.40;;;16.47;;
1328;SDS011;658;48.820;9.354;2023-03-05T21:25:18;21.43;;;15.47;;
1328;SDS011;658;48.820;9.354;2023-03-05T21:29:21;21.87;;;15.10;;
1328;SDS011;658;48.820;9.354;2023-03-05T21:33:22;23.87;;;16.93;;
1328;SDS011;658;48.820;9.354;2023-03-05T21:37:25;24.50;;;16.57;;
1328;SDS011;658;48.820;9.354;2023-03-05T21:41:26;26.03;;;18.27;;
1328;SDS011;658;48.820;9.354;2023-03-05T21:45:27;21.97;;;16.83;;
1328;SDS011;658;48.820;9.354;2023-03-05T21:49:28;21.40;;;17.30;;
1328;SDS011;658;48.820;9.354;2023-03-05T21:53:29;19.10;;;16.23;;
1328;SDS011;658;48.820;9.354;2023-03-05T21:57:29;21.70;;;15.63;;
1328;SDS011;658;48.820;9.354;2023-03-05T22:01:31;18.50;;;16.00;;
1328;SDS011;658;48.820;9.354;2023-03-05T22:05:32;24.57;;;15.33;;
1328;SDS011;658;48.820;9.354;2023-03-05T22:09:32;20.43;;;15.23;;
1328;SDS011;658;48.820;9.354;2023-03-05T22:13:33;19.40;;;15.83;;
1328;SDS011;658;48.820;9.354;2023-03-05T22:17:34;20.00;;;15.07;;
1328;SDS011;658;48.820;9.354;2023-03-05T22:21:35;17.03;;;15.03;;
1328;SDS011;658;48.820;9.354;2023-03-05T22:25:36;21.33;;;14.90;;
1328;SDS011;658;48.820;9.354;2023-03-05T22:29:36;17.20;;;14.37;;
1328;SDS011;658;48.820;9.354;2023-03-05T22:33:37;20.53;;;15.20;;
1328;SDS011;658;48.820;9.354;2023-03-05T22:37:38;17.73;;;14.03;;
1328;SDS011;658;48.820;9.354;2023-03-05T22:41:40;17.07;;;14.50;;
1328;SDS011;658;48.820;9.354;2023-03-05T22:45:41;15.27;;;13.20;;
1328;SDS011;658;48.820;9.354;2023-03-05T22:49:42;16.57;;;14.73;;
1328;SDS011;658;48.820;9.354;2023-03-05T22:53:43;17.37;;;13.57;;
1328;SDS011;658;48.820;9.354;2023-03-05T22:57:44;15.90;;;13.07;;
1328;SDS011;658;48.820;9.354;2023-03-05T23:01:45;16.70;;;12.87;;
1328;SDS011;658;48.820;9.354;2023-03-05T23:05:45;16.73;;;12.93;;
1328;SDS011;658;48.820;9.354;2023-03-05T23:09:50;16.47;;;12.80;;
1328;SDS011;658;48.820;9.354;2023-03-05T23:13:51;14.33;;;11.57;;
1328;SDS011;658;48.820;9.354;2023-03-05T23:17:52;14.27;;;11.50;;
1328;SDS011;658;48.820;9.354;2023-03-05T23:21:53;14.73;;;11.83;;
1328;SDS011;658;48.820;9.354;2023-03-05T23:25:53;14.27;;;11.40;;
1328;SDS011;658;48.820;9.354;2023-03-05T23:34:07;16.23;;;12.27;;
1328;SDS011;658;48.820;9.354;2023-03-05T23:38:10;13.13;;;10.70;;
1328;SDS011;658;48.820;9.354;2023-03-05T23:42:12;11.83;;;10.57;;
1328;SDS011;658;48.820;9.354;2023-03-05T23:46:13;12.97;;;11.03;;
1328;SDS011;658;48.820;9.354;2023-03-05T23:50:15;13.63;;;10.50;;
1328;SDS011;658;48.820;9.354;2023-03-05T23:54:17;14.83;;;10.33;;
1328;SDS011;658;48.820;9.354;2023-03-05T23:58:18;12.30;;;10.10;;
